Hlavní strana
METAR-TAF:

METAR-TAF

Letiště :

Letiště Karlovy Vary

Karlovy Vary, Česká republika

zeměpisná šířka: 50-12N, zeměpisná délka: 012-55E, výška: 603 m

Aktuální stav počasí

Zpráva byla vytvořena před 49 minutami, v 19:00 UTC
Východní vítr 5 kt
Teplota 20°C
Vlhkost vzduchu 40%
Tlak 1025 hPa
Viditelnost 10 km a více
Žádná oblačnost pod 1500 m, nevyskytují se cumulonimby.

METAR: LKKV 101900Z 08005KT CAVOK 20/06 Q1025

Čas: 21:49 (19:49 UTC)

Předpověď počasí

Zpráva byla vytvořena před 2 hodinami a 49 minutami, v 17:00 UTC
Předpověď platná od 10 v 18 UTC do 12 v 00 UTC
Východní vítr 8 kt
Viditelnost 10 km a více
Žádná oblačnost pod 1500 m, nevyskytují se cumulonimby.
Změna
od 10 v 22 UTC do 11 v 00 UTC
vítr z různých směrů 2 kt
Změna
od 11 v 10 UTC do 11 v 12 UTC
Východoseverovýchodní vítr 14 kt
Změna
od 11 v 18 UTC do 11 v 20 UTC
Východoseverovýchodní vítr 6 kt

TAF: LKKV 101700Z 1018/1200 10008KT CAVOK BECMG 1022/1100 VRB02KT BECMG 1110/1112 07014KT BECMG 1118/1120 07006KT

Stav a předpovědi počasí z více než 4 000 letišť (zprávy METAR a TAF).

Červené a žluté tečky na mapě představují dostupné meteorologické stanice.

Když kurzor umístíte na tečku, zobrazí se název stanice.

Pak kliknutím zobrazíte stav a předpověď počasí.

Chcete-li změnit mapu, kliknutím na zelené tlačítko se znaménkem +mapu přiblížíte, kliknutím na zelené tlačítko se znaménkem – mapu oddálíte a kliknutím na zelené šipky přejdete na sousední mapy.


METAR-TAF: